createdAt,value
2022-12-31T00:02:42.940Z,101013.72
2022-12-31T00:05:45.272Z,101011.03
2022-12-31T00:08:48.555Z,101013.72
2022-12-31T00:11:50.652Z,101022.78
2022-12-31T00:14:52.807Z,101025.47
2022-12-31T00:17:55.002Z,101023.84
2022-12-31T00:20:57.121Z,101017.41
2022-12-31T00:23:59.508Z,101018.47
2022-12-31T00:27:01.706Z,101036.19
2022-12-31T00:30:04.958Z,101037.84
2022-12-31T00:33:07.257Z,101038.88
2022-12-31T00:36:39.868Z,101039.47
2022-12-31T00:39:42.130Z,101043.22
2022-12-31T00:42:44.224Z,101035.59
2022-12-31T00:45:46.394Z,101046.91
2022-12-31T00:48:50.909Z,101056.63
2022-12-31T00:51:53.054Z,101052.28
2022-12-31T00:54:55.220Z,101050.66
2022-12-31T00:57:57.393Z,101054.97
2022-12-31T01:00:59.649Z,101054.97
2022-12-31T01:04:14.237Z,101055.78
2022-12-31T01:07:16.386Z,101058.47
2022-12-31T01:10:38.504Z,101067.34
2022-12-31T01:13:40.624Z,101066.28
2022-12-31T01:16:50.846Z,101063.84
2022-12-31T01:19:53.094Z,101067.34
2022-12-31T01:22:55.778Z,101059.31
2022-12-31T01:26:03.900Z,101053.34
2022-12-31T01:29:07.849Z,101051.47
2022-12-31T01:32:09.957Z,101062.22
2022-12-31T01:35:12.062Z,101066.75
2022-12-31T01:38:14.231Z,101070.03
2022-12-31T01:41:21.256Z,101065.50
2022-12-31T01:44:23.326Z,101064.66
2022-12-31T01:47:34.682Z,101065.69
2022-12-31T01:50:38.914Z,101064.66
2022-12-31T01:53:41.357Z,101073.53
2022-12-31T01:56:44.709Z,101065.50
2022-12-31T01:59:46.921Z,101070.03
2022-12-31T02:02:49.181Z,101067.56
2022-12-31T02:06:22.022Z,101062.22
2022-12-31T02:09:24.259Z,101066.75
2022-12-31T02:12:26.446Z,101072.94
2022-12-31T02:15:55.015Z,101070.03
2022-12-31T02:19:06.522Z,101060.56
2022-12-31T02:22:27.006Z,101061.16
2022-12-31T02:26:10.491Z,101070.03
2022-12-31T02:29:47.882Z,101063.84
2022-12-31T02:33:01.745Z,101059.31
2022-12-31T02:36:13.457Z,101058.25
2022-12-31T02:39:15.878Z,101076.22
2022-12-31T02:42:18.206Z,101081.59
2022-12-31T02:45:25.716Z,101078.06
2022-12-31T02:48:51.507Z,101075.38
2022-12-31T02:52:01.104Z,101076.22
2022-12-31T02:55:06.803Z,101078.06
2022-12-31T02:58:15.505Z,101074.78
2022-12-31T03:01:41.832Z,101075.38
2022-12-31T03:04:56.150Z,101058.47
2022-12-31T03:07:58.362Z,101045.28
2022-12-31T03:11:20.476Z,101046.13
2022-12-31T03:14:22.591Z,101035.41
2022-12-31T03:17:25.289Z,101056.63
2022-12-31T03:20:52.144Z,101055.78
2022-12-31T03:24:13.000Z,101039.69
2022-12-31T03:27:15.212Z,101040.75
2022-12-31T03:30:18.510Z,101065.91
2022-12-31T03:33:21.550Z,101071.88
2022-12-31T03:36:23.690Z,101057.66
2022-12-31T03:39:25.874Z,101053.94
2022-12-31T03:42:28.059Z,101060.13
2022-12-31T03:45:30.777Z,101051.25
2022-12-31T03:48:33.034Z,101045.06
2022-12-31T03:51:35.266Z,101037.03
2022-12-31T03:54:37.366Z,101035.16
2022-12-31T03:57:39.876Z,101036.41
2022-12-31T04:00:42.056Z,101052.28
2022-12-31T04:03:44.266Z,101046.31
2022-12-31T04:06:46.400Z,101050.88
2022-12-31T04:09:48.592Z,101057.66
2022-12-31T04:12:50.894Z,101061.16
2022-12-31T04:15:53.019Z,101054.97
2022-12-31T04:18:55.195Z,101060.31
2022-12-31T04:21:57.643Z,101054.97
2022-12-31T04:24:59.848Z,101058.69
2022-12-31T04:28:01.982Z,101048.81
2022-12-31T04:31:04.408Z,101068.38
2022-12-31T04:34:06.576Z,101074.78
2022-12-31T04:37:08.789Z,101070.25
2022-12-31T04:40:11.185Z,101079.09
2022-12-31T04:43:13.421Z,101087.97
2022-12-31T04:46:17.294Z,101090.66
2022-12-31T04:49:19.668Z,101095.19
2022-12-31T04:52:23.074Z,101090.03
2022-12-31T04:55:25.318Z,101097.25
2022-12-31T04:58:27.636Z,101100.53
2022-12-31T05:01:29.836Z,101111.28
2022-12-31T05:04:32.038Z,101105.31
2022-12-31T05:07:34.204Z,101120.38
2022-12-31T05:10:36.799Z,101128.41
2022-12-31T05:13:39.395Z,101122.44
2022-12-31T05:16:41.537Z,101110.28
2022-12-31T05:19:43.760Z,101118.72
2022-12-31T05:22:45.921Z,101124.06
2022-12-31T05:25:48.705Z,101132.13
2022-12-31T05:28:50.819Z,101124.91
2022-12-31T05:31:52.962Z,101123.06
2022-12-31T05:34:55.140Z,101125.97
2022-12-31T05:37:57.357Z,101148.22
2022-12-31T05:41:03.037Z,101153.56
2022-12-31T05:44:05.186Z,101150.88
2022-12-31T05:47:07.332Z,101151.94
2022-12-31T05:50:10.937Z,101148.22
2022-12-31T05:53:13.058Z,101148.22
2022-12-31T05:56:15.228Z,101152.78
2022-12-31T05:59:17.376Z,101152.16
2022-12-31T06:02:20.741Z,101153.56
2022-12-31T06:05:26.292Z,101153.78
2022-12-31T06:08:28.964Z,101147.41
2022-12-31T06:11:31.199Z,101157.53
2022-12-31T06:14:33.507Z,101161.84
2022-12-31T06:17:35.759Z,101160.81
2022-12-31T06:20:38.233Z,101153.78
2022-12-31T06:23:40.871Z,101153.56
2022-12-31T06:26:43.004Z,101155.44
2022-12-31T06:29:45.765Z,101151.94
2022-12-31T06:32:47.898Z,101156.69
2022-12-31T06:35:55.703Z,101171.53
2022-12-31T06:38:57.883Z,101179.81
2022-12-31T06:42:00.008Z,101163.72
2022-12-31T06:45:02.185Z,101176.06
2022-12-31T06:48:04.548Z,101194.84
2022-12-31T06:51:16.583Z,101188.44
2022-12-31T06:54:19.422Z,101190.31
2022-12-31T06:57:23.522Z,101190.31
2022-12-31T07:00:25.949Z,101186.81
2022-12-31T07:03:48.784Z,101185.75
2022-12-31T07:07:07.527Z,101185.97
2022-12-31T07:10:30.033Z,101200.81
2022-12-31T07:13:45.272Z,101206.19
2022-12-31T07:17:29.466Z,101204.50
2022-12-31T07:20:31.974Z,101219.59
2022-12-31T07:23:34.348Z,101218.16
2022-12-31T07:27:10.962Z,101219.59
2022-12-31T07:30:37.845Z,101221.03
2022-12-31T07:33:59.047Z,101210.72
2022-12-31T07:37:31.789Z,101206.78
2022-12-31T07:40:38.642Z,101195.00
2022-12-31T07:43:49.781Z,101208.41
2022-12-31T07:46:57.395Z,101211.09
2022-12-31T07:49:59.987Z,101224.50
2022-12-31T07:53:02.439Z,101224.72
2022-12-31T07:56:06.797Z,101222.03
2022-12-31T07:59:27.362Z,101220.78
2022-12-31T08:02:55.032Z,101232.34
2022-12-31T08:06:09.267Z,101246.56
2022-12-31T08:09:29.672Z,101246.56
2022-12-31T08:12:34.951Z,101243.88
2022-12-31T08:15:38.466Z,101239.34
2022-12-31T08:18:41.341Z,101239.94
2022-12-31T08:21:59.817Z,101237.28
2022-12-31T08:25:26.214Z,101252.34
2022-12-31T08:28:50.421Z,101262.84
2022-12-31T08:31:59.472Z,101276.25
2022-12-31T08:35:14.115Z,101279.16
2022-12-31T08:38:32.215Z,101287.78
2022-12-31T08:41:43.475Z,101292.94
2022-12-31T08:44:45.609Z,101291.28
2022-12-31T08:48:06.226Z,101288.59
2022-12-31T08:51:28.829Z,101306.34
2022-12-31T08:54:31.285Z,101302.63
2022-12-31T08:57:59.058Z,101299.34
2022-12-31T09:01:01.676Z,101308.81
2022-12-31T09:04:26.336Z,101318.31
2022-12-31T09:07:36.263Z,101301.16
2022-12-31T09:10:53.462Z,101290.66
2022-12-31T09:14:17.284Z,101318.31
2022-12-31T09:17:25.128Z,101318.91
2022-12-31T09:20:42.672Z,101298.47
2022-12-31T09:23:47.145Z,101289.41
2022-12-31T09:27:07.705Z,101285.69
2022-12-31T09:30:14.250Z,101292.88
2022-12-31T09:34:03.665Z,101296.41
2022-12-31T09:37:44.340Z,101284.03
2022-12-31T09:41:01.434Z,101291.03
2022-12-31T09:44:50.486Z,101278.69
2022-12-31T09:48:17.255Z,101267.13
2022-12-31T09:51:44.355Z,101251.84
2022-12-31T09:55:11.987Z,101235.53
2022-12-31T09:58:33.018Z,101239.06
2022-12-31T10:01:43.741Z,101242.31
2022-12-31T10:05:19.327Z,101238.81
2022-12-31T10:08:56.699Z,101234.25
2022-12-31T10:12:37.006Z,101234.25
2022-12-31T10:15:54.394Z,101238.59
2022-12-31T10:19:19.682Z,101240.22
2022-12-31T10:22:36.689Z,101235.09
2022-12-31T10:25:59.043Z,101225.41
2022-12-31T10:29:19.982Z,101238.81
2022-12-31T10:32:45.767Z,101247.69
2022-12-31T10:36:00.285Z,101234.25
2022-12-31T10:39:39.264Z,101242.31
2022-12-31T10:42:41.334Z,101241.28
2022-12-31T10:45:58.371Z,101253.03
2022-12-31T10:49:53.410Z,101266.44
2022-12-31T10:53:01.256Z,101236.16
2022-12-31T10:56:15.693Z,101231.81
2022-12-31T10:59:24.016Z,101238.00
2022-12-31T11:03:01.410Z,101235.31
2022-12-31T11:06:40.883Z,101215.72
2022-12-31T11:10:20.776Z,101226.44
2022-12-31T11:13:22.870Z,101221.06
2022-12-31T11:16:34.011Z,101237.16
2022-12-31T11:19:39.084Z,101225.63
2022-12-31T11:22:47.313Z,101221.06
2022-12-31T11:26:02.123Z,101226.66
2022-12-31T11:29:08.744Z,101233.88
2022-12-31T11:32:28.314Z,101219.66
2022-12-31T11:35:33.426Z,101227.72
2022-12-31T11:38:45.675Z,101224.22
2022-12-31T11:41:57.710Z,101223.38
2022-12-31T11:45:04.471Z,101219.66
2022-12-31T11:49:01.125Z,101220.28
2022-12-31T11:52:37.226Z,101210.56
2022-12-31T11:56:00.274Z,101210.34
2022-12-31T11:59:07.763Z,101201.50
2022-12-31T12:02:24.021Z,101206.88
2022-12-31T12:05:27.351Z,101222.97
2022-12-31T12:08:31.486Z,101227.91
2022-12-31T12:11:39.064Z,101236.16
2022-12-31T12:14:44.339Z,101243.38
2022-12-31T12:17:50.420Z,101231.59
2022-12-31T12:20:53.046Z,101235.09
2022-12-31T12:24:38.358Z,101234.25
2022-12-31T12:27:40.576Z,101231.19
2022-12-31T12:30:44.096Z,101245.81
2022-12-31T12:33:51.051Z,101238.00
2022-12-31T12:36:53.393Z,101235.09
2022-12-31T12:40:02.197Z,101238.81
2022-12-31T12:43:04.506Z,101240.22
2022-12-31T12:46:18.964Z,101224.97
2022-12-31T12:49:26.922Z,101227.88
2022-12-31T12:52:49.522Z,101223.13
2022-12-31T12:56:04.446Z,101207.84
2022-12-31T12:59:33.354Z,101228.47
2022-12-31T13:02:57.364Z,101220.44
2022-12-31T13:06:09.136Z,101211.34
2022-12-31T13:09:25.069Z,101216.91
2022-12-31T13:12:37.870Z,101221.25
2022-12-31T13:16:10.142Z,101223.13
2022-12-31T13:19:21.888Z,101216.91
2022-12-31T13:22:34.938Z,101218.78
2022-12-31T13:25:47.117Z,101238.16
2022-12-31T13:28:50.881Z,101232.19
2022-12-31T13:31:54.467Z,101237.78
2022-12-31T13:34:58.896Z,101245.59
2022-12-31T13:38:10.945Z,101245.81
2022-12-31T13:41:23.272Z,101229.72
2022-12-31T13:44:35.796Z,101235.09
2022-12-31T13:47:44.190Z,101227.88
2022-12-31T13:51:01.690Z,101208.03
2022-12-31T13:54:07.254Z,101217.16
2022-12-31T13:57:18.545Z,101227.88
2022-12-31T14:00:24.175Z,101241.91
2022-12-31T14:03:56.216Z,101246.66
2022-12-31T14:07:07.481Z,101256.78
2022-12-31T14:10:14.365Z,101258.41
2022-12-31T14:13:34.775Z,101256.56
2022-12-31T14:16:59.257Z,101253.25
2022-12-31T14:20:13.462Z,101262.13
2022-12-31T14:23:40.409Z,101257.81
2022-12-31T14:26:55.506Z,101244.41
2022-12-31T14:30:20.950Z,101241.72
2022-12-31T14:33:42.021Z,101258.84
2022-12-31T14:36:59.585Z,101264.22
2022-12-31T14:40:19.382Z,101272.72
2022-12-31T14:43:40.232Z,101257.22
2022-12-31T14:47:23.827Z,101251.84
2022-12-31T14:50:27.494Z,101255.56
2022-12-31T14:53:29.958Z,101240.31
2022-12-31T14:56:42.254Z,101252.88
2022-12-31T15:00:22.940Z,101258.47
2022-12-31T15:03:31.092Z,101246.91
2022-12-31T15:06:48.182Z,101247.13
2022-12-31T15:10:15.018Z,101238.03
2022-12-31T15:13:40.136Z,101246.09
2022-12-31T15:17:04.458Z,101240.72
2022-12-31T15:20:26.820Z,101246.09
2022-12-31T15:23:36.086Z,101266.94
2022-12-31T15:26:47.906Z,101271.28
2022-12-31T15:29:50.174Z,101280.16
2022-12-31T15:32:52.434Z,101285.50
2022-12-31T15:35:55.887Z,101259.72
2022-12-31T15:39:09.857Z,101273.13
2022-12-31T15:42:39.921Z,101267.75
2022-12-31T15:45:44.117Z,101261.78
2022-12-31T15:48:55.413Z,101288.38
2022-12-31T15:52:02.473Z,101305.53
2022-12-31T15:55:05.692Z,101292.13
2022-12-31T15:58:12.062Z,101292.13
2022-12-31T16:01:23.244Z,101267.97
2022-12-31T16:04:39.356Z,101260.16
2022-12-31T16:07:41.628Z,101256.66
2022-12-31T16:10:44.046Z,101260.97
2022-12-31T16:13:50.241Z,101270.88
2022-12-31T16:16:59.517Z,101289.66
2022-12-31T16:20:20.596Z,101278.94
2022-12-31T16:23:25.179Z,101285.94
2022-12-31T16:26:39.598Z,101276.25
2022-12-31T16:29:52.215Z,101276.25
2022-12-31T16:33:04.065Z,101270.88
2022-12-31T16:36:06.600Z,101263.88
2022-12-31T16:39:32.667Z,101263.06
2022-12-31T16:42:44.362Z,101258.50
2022-12-31T16:45:50.445Z,101267.59
2022-12-31T16:48:58.778Z,101283.69
2022-12-31T16:52:03.833Z,101281.84
2022-12-31T16:55:08.861Z,101295.66
2022-12-31T16:58:21.366Z,101293.59
2022-12-31T17:01:25.787Z,101284.94
2022-12-31T17:04:28.103Z,101278.31
2022-12-31T17:07:30.178Z,101278.31
2022-12-31T17:10:36.359Z,101280.41
2022-12-31T17:13:38.547Z,101269.69
2022-12-31T17:17:03.480Z,101301.03
2022-12-31T17:20:09.107Z,101292.75
2022-12-31T17:23:21.446Z,101296.50
2022-12-31T17:26:31.856Z,101281.41
2022-12-31T17:29:34.364Z,101285.97
2022-12-31T17:32:37.097Z,101300.19
2022-12-31T17:35:43.942Z,101304.75
2022-12-31T17:38:46.151Z,101310.91
2022-12-31T17:41:50.400Z,101315.25
2022-12-31T17:44:56.811Z,101311.75
2022-12-31T17:47:59.849Z,101311.38
2022-12-31T17:51:02.041Z,101301.88
2022-12-31T17:54:13.304Z,101308.25
2022-12-31T17:57:22.896Z,101313.81
2022-12-31T18:00:26.664Z,101324.31
2022-12-31T18:03:28.972Z,101330.75
2022-12-31T18:06:31.130Z,101324.31
2022-12-31T18:09:33.299Z,101309.50
2022-12-31T18:12:36.156Z,101310.31
2022-12-31T18:15:38.331Z,101295.06
2022-12-31T18:18:41.884Z,101296.09
2022-12-31T18:21:44.830Z,101293.44
2022-12-31T18:24:48.600Z,101296.09
2022-12-31T18:27:51.845Z,101306.84
2022-12-31T18:30:54.121Z,101316.72
2022-12-31T18:33:57.869Z,101314.03
2022-12-31T18:37:00.130Z,101309.50
2022-12-31T18:40:02.293Z,101309.09
2022-12-31T18:43:05.258Z,101315.91
2022-12-31T18:46:12.194Z,101329.09
2022-12-31T18:49:14.400Z,101330.97
2022-12-31T18:52:22.154Z,101331.75
2022-12-31T18:55:33.963Z,101328.06
2022-12-31T18:58:36.199Z,101337.97
2022-12-31T19:01:39.623Z,101333.44
2022-12-31T19:04:41.942Z,101341.47
2022-12-31T19:07:44.044Z,101338.19
2022-12-31T19:10:46.788Z,101338.19
2022-12-31T19:13:49.837Z,101328.28
2022-12-31T19:16:53.431Z,101333.84
2022-12-31T19:19:55.656Z,101332.59
2022-12-31T19:22:57.929Z,101326.63
2022-12-31T19:26:00.187Z,101332.38
2022-12-31T19:29:02.323Z,101330.34
2022-12-31T19:32:04.852Z,101337.97
2022-12-31T19:35:07.294Z,101322.09
2022-12-31T19:38:17.023Z,101328.47
2022-12-31T19:41:20.196Z,101341.88
2022-12-31T19:44:22.308Z,101346.22
2022-12-31T19:47:24.422Z,101335.50
2022-12-31T19:50:27.600Z,101323.31
2022-12-31T19:53:29.783Z,101333.66
2022-12-31T19:56:32.067Z,101331.97
2022-12-31T19:59:34.233Z,101317.97
2022-12-31T20:02:36.517Z,101300.03
2022-12-31T20:05:38.763Z,101306.22
2022-12-31T20:08:43.332Z,101310.75
2022-12-31T20:11:48.395Z,101314.47
2022-12-31T20:14:50.567Z,101317.97
2022-12-31T20:17:52.685Z,101316.34
2022-12-31T20:20:56.074Z,101311.59
2022-12-31T20:23:58.495Z,101305.59
2022-12-31T20:27:00.612Z,101311.78
2022-12-31T20:30:02.956Z,101316.34
2022-12-31T20:33:05.135Z,101320.03
2022-12-31T20:36:10.010Z,101319.25
2022-12-31T20:39:12.133Z,101314.06
2022-12-31T20:42:14.315Z,101319.25
2022-12-31T20:45:16.547Z,101319.25
2022-12-31T20:48:18.716Z,101325.19
2022-12-31T20:51:21.740Z,101310.97
2022-12-31T20:54:23.924Z,101317.13
2022-12-31T20:57:30.183Z,101310.38
2022-12-31T21:00:35.640Z,101313.88
2022-12-31T21:07:02.916Z,101315.50
2022-12-31T21:10:05.584Z,101307.47
2022-12-31T21:13:07.726Z,101310.16
2022-12-31T21:16:09.935Z,101298.19
2022-12-31T21:19:12.379Z,101304.78
2022-12-31T21:22:14.556Z,101309.31
2022-12-31T21:25:16.719Z,101315.72
2022-12-31T21:28:18.935Z,101324.59
2022-12-31T21:31:21.309Z,101331.81
2022-12-31T21:34:23.472Z,101338.25
2022-12-31T21:37:26.556Z,101344.38
2022-12-31T21:40:49.022Z,101346.84
2022-12-31T21:43:51.198Z,101343.56
2022-12-31T21:47:35.004Z,101362.34
2022-12-31T21:50:38.556Z,101359.66
2022-12-31T21:53:40.775Z,101360.69
2022-12-31T21:56:42.976Z,101359.25
2022-12-31T22:00:39.531Z,101366.91
2022-12-31T22:03:27.831Z,101359.25
2022-12-31T22:06:31.363Z,101363.00
2022-12-31T22:09:33.835Z,101376.19
2022-12-31T22:12:36.083Z,101370.81
2022-12-31T22:15:38.298Z,101368.13
2022-12-31T22:18:42.874Z,101362.56
2022-12-31T22:21:45.083Z,101363.78
2022-12-31T22:24:47.191Z,101363.00
2022-12-31T22:28:11.490Z,101361.94
2022-12-31T22:31:30.444Z,101360.31
2022-12-31T22:34:32.685Z,101373.72
2022-12-31T22:37:56.343Z,101362.16
2022-12-31T22:41:10.790Z,101352.25
2022-12-31T22:44:19.678Z,101344.22
2022-12-31T22:47:21.818Z,101339.88
2022-12-31T22:50:24.035Z,101348.75
2022-12-31T22:53:26.210Z,101328.13
2022-12-31T22:56:28.429Z,101325.63
2022-12-31T22:59:30.554Z,101324.63
2022-12-31T23:02:35.954Z,101334.50
2022-12-31T23:05:42.772Z,101335.34
2022-12-31T23:09:04.913Z,101338.84
2022-12-31T23:12:08.456Z,101333.50
2022-12-31T23:15:29.316Z,101326.47
2022-12-31T23:18:49.968Z,101321.13
2022-12-31T23:22:11.096Z,101322.97
2022-12-31T23:25:13.669Z,101326.47
2022-12-31T23:28:21.618Z,101329.16
2022-12-31T23:31:28.573Z,101330.19
2022-12-31T23:34:31.355Z,101334.50
2022-12-31T23:37:33.638Z,101344.63
2022-12-31T23:40:35.759Z,101346.28
2022-12-31T23:43:37.967Z,101355.13
2022-12-31T23:46:40.694Z,101347.91
2022-12-31T23:49:42.973Z,101345.69
2022-12-31T23:52:45.131Z,101344.84
2022-12-31T23:55:47.314Z,101344.03
2022-12-31T23:58:53.796Z,101341.13
